createdAt,value
2023-10-25T00:00:00.446Z,69.37
2023-10-25T00:02:30.010Z,69.42
2023-10-25T00:04:58.438Z,69.53
2023-10-25T00:07:26.466Z,70.00
2023-10-25T00:09:54.774Z,70.35
2023-10-25T00:12:23.344Z,71.01
2023-10-25T00:14:51.394Z,70.83
2023-10-25T00:17:19.449Z,71.06
2023-10-25T00:19:47.616Z,71.20
2023-10-25T00:22:16.103Z,71.40
2023-10-25T00:24:44.320Z,71.66
2023-10-25T00:27:12.616Z,71.55
2023-10-25T00:29:41.069Z,71.71
2023-10-25T00:32:16.017Z,71.91
2023-10-25T00:34:44.453Z,71.70
2023-10-25T00:37:12.823Z,71.86
2023-10-25T00:39:42.098Z,72.02
2023-10-25T00:42:10.956Z,71.87
2023-10-25T00:44:39.247Z,71.99
2023-10-25T00:47:09.046Z,71.92
2023-10-25T00:49:37.770Z,71.79
2023-10-25T00:52:06.412Z,71.93
2023-10-25T00:54:37.593Z,71.82
2023-10-25T00:57:05.995Z,71.88
2023-10-25T00:59:34.561Z,71.89
2023-10-25T01:02:04.229Z,71.84
2023-10-25T01:04:32.721Z,71.80
2023-10-25T01:07:01.359Z,72.07
2023-10-25T01:09:32.020Z,72.11
2023-10-25T01:12:00.486Z,72.16
2023-10-25T01:14:31.140Z,72.71
2023-10-25T01:16:59.407Z,73.04
2023-10-25T01:19:28.337Z,72.92
2023-10-25T01:21:56.848Z,72.84
2023-10-25T01:24:25.196Z,72.55
2023-10-25T01:26:53.269Z,72.59
2023-10-25T01:29:21.760Z,72.78
2023-10-25T01:31:50.572Z,72.62
2023-10-25T01:34:20.305Z,72.51
2023-10-25T01:36:48.563Z,72.57
2023-10-25T01:39:16.983Z,72.63
2023-10-25T01:41:46.931Z,72.57
2023-10-25T01:44:16.011Z,72.63
2023-10-25T01:46:44.654Z,72.61
2023-10-25T01:49:12.918Z,72.70
2023-10-25T01:51:41.220Z,72.45
2023-10-25T01:54:09.596Z,72.49
2023-10-25T01:56:38.392Z,72.75
2023-10-25T01:59:07.549Z,72.55
2023-10-25T02:01:35.769Z,72.49
2023-10-25T02:04:04.406Z,72.35
2023-10-25T02:06:32.596Z,72.41
2023-10-25T02:09:00.792Z,72.60
2023-10-25T02:11:29.112Z,72.56
2023-10-25T02:14:00.428Z,73.26
2023-10-25T02:16:28.889Z,73.32
2023-10-25T02:18:57.244Z,73.69
2023-10-25T02:21:25.496Z,73.56
2023-10-25T02:23:56.637Z,73.92
2023-10-25T02:26:24.702Z,73.99
2023-10-25T02:28:52.772Z,74.08
2023-10-25T02:31:21.461Z,74.49
2023-10-25T02:33:50.198Z,74.58
2023-10-25T02:36:18.601Z,74.59
2023-10-25T02:38:49.353Z,75.43
2023-10-25T02:41:17.582Z,74.98
2023-10-25T02:43:46.087Z,74.80
2023-10-25T02:46:14.854Z,74.93
2023-10-25T02:48:43.221Z,75.72
2023-10-25T02:51:11.605Z,75.79
2023-10-25T02:53:40.502Z,76.33
2023-10-25T02:56:09.435Z,76.99
2023-10-25T02:58:38.014Z,77.13
2023-10-25T03:01:06.916Z,77.64
2023-10-25T03:03:36.217Z,77.64
2023-10-25T03:06:05.311Z,78.10
2023-10-25T03:08:33.443Z,78.40
2023-10-25T03:11:01.469Z,78.22
2023-10-25T03:13:29.875Z,77.97
2023-10-25T03:15:59.165Z,78.08
2023-10-25T03:18:27.399Z,77.80
2023-10-25T03:20:56.217Z,77.39
2023-10-25T03:23:24.312Z,77.61
2023-10-25T03:25:52.364Z,77.27
2023-10-25T03:28:20.766Z,77.30
2023-10-25T03:30:49.211Z,77.30
2023-10-25T03:33:17.764Z,77.15
2023-10-25T03:35:52.699Z,77.13
2023-10-25T03:38:21.350Z,76.91
2023-10-25T03:40:50.154Z,76.97
2023-10-25T03:43:18.422Z,77.19
2023-10-25T03:45:46.658Z,77.10
2023-10-25T03:48:15.376Z,77.24
2023-10-25T03:50:43.623Z,77.29
2023-10-25T03:53:12.284Z,77.48
2023-10-25T03:55:40.381Z,77.40
2023-10-25T03:58:09.915Z,77.26
2023-10-25T04:00:38.522Z,77.16
2023-10-25T04:03:06.931Z,77.00
2023-10-25T04:05:35.534Z,77.05
2023-10-25T04:08:03.606Z,76.84
2023-10-25T04:10:33.853Z,77.09
2023-10-25T04:13:02.278Z,76.76
2023-10-25T04:15:36.128Z,76.95
2023-10-25T04:18:06.077Z,76.61
2023-10-25T04:20:34.269Z,76.76
2023-10-25T04:23:02.598Z,76.71
2023-10-25T04:25:30.915Z,76.68
2023-10-25T04:27:59.194Z,76.37
2023-10-25T04:30:27.821Z,76.38
2023-10-25T04:32:56.208Z,76.41
2023-10-25T04:35:24.633Z,76.43
2023-10-25T04:37:52.661Z,76.28
2023-10-25T04:40:20.775Z,76.30
2023-10-25T04:42:55.015Z,76.43
2023-10-25T04:45:23.582Z,76.19
2023-10-25T04:47:52.566Z,76.12
2023-10-25T04:50:22.398Z,75.90
2023-10-25T04:52:50.852Z,76.00
2023-10-25T04:55:19.788Z,75.94
2023-10-25T04:57:48.165Z,75.88
2023-10-25T05:00:16.897Z,75.74
2023-10-25T05:02:45.893Z,75.64
2023-10-25T05:05:14.093Z,75.53
2023-10-25T05:07:42.864Z,75.37
2023-10-25T05:10:13.598Z,75.39
2023-10-25T05:12:44.201Z,75.09
2023-10-25T05:15:17.332Z,74.92
2023-10-25T05:17:48.446Z,74.61
2023-10-25T05:20:17.321Z,74.72
2023-10-25T05:22:51.575Z,74.72
2023-10-25T05:25:20.961Z,74.48
2023-10-25T05:27:49.812Z,74.53
2023-10-25T05:30:19.167Z,74.58
2023-10-25T05:32:50.499Z,74.57
2023-10-25T05:35:19.275Z,74.76
2023-10-25T05:37:47.767Z,74.79
2023-10-25T05:40:18.645Z,75.17
2023-10-25T05:42:49.638Z,75.20
2023-10-25T05:45:18.403Z,75.53
2023-10-25T05:47:47.095Z,75.52
2023-10-25T05:50:16.285Z,75.67
2023-10-25T05:52:48.230Z,75.80
2023-10-25T05:55:17.756Z,76.00
2023-10-25T05:57:47.634Z,76.08
2023-10-25T06:00:17.164Z,76.05
2023-10-25T06:02:46.065Z,76.19
2023-10-25T06:05:15.019Z,76.41
2023-10-25T06:07:44.483Z,76.37
2023-10-25T06:10:13.687Z,76.32
2023-10-25T06:12:43.161Z,76.27
2023-10-25T06:15:11.806Z,76.42
2023-10-25T06:17:40.746Z,76.42
2023-10-25T06:20:11.318Z,76.31
2023-10-25T06:22:39.467Z,76.09
2023-10-25T06:25:13.694Z,76.29
2023-10-25T06:27:42.301Z,76.37
2023-10-25T06:30:10.940Z,76.30
2023-10-25T06:32:41.359Z,76.31
2023-10-25T06:35:10.037Z,76.37
2023-10-25T06:37:39.194Z,76.29
2023-10-25T06:40:08.381Z,76.36
2023-10-25T06:42:37.604Z,76.54
2023-10-25T06:45:06.886Z,76.46
2023-10-25T06:47:35.658Z,76.51
2023-10-25T06:50:05.123Z,76.43
2023-10-25T06:52:33.912Z,76.32
2023-10-25T06:55:02.566Z,76.33
2023-10-25T06:57:31.891Z,76.54
2023-10-25T07:00:00.870Z,77.02
2023-10-25T07:02:48.466Z,77.30
2023-10-25T07:05:17.236Z,77.46
2023-10-25T07:07:46.615Z,77.97
2023-10-25T07:10:15.353Z,77.83
2023-10-25T07:12:43.734Z,78.16
2023-10-25T07:15:12.742Z,77.96
2023-10-25T07:17:42.546Z,78.13
2023-10-25T07:20:11.428Z,78.03
2023-10-25T07:22:40.334Z,78.15
2023-10-25T07:25:10.128Z,78.24
2023-10-25T07:27:38.678Z,78.09
2023-10-25T07:30:07.810Z,78.05
2023-10-25T07:32:37.251Z,77.88
2023-10-25T07:35:06.547Z,77.96
2023-10-25T07:37:34.807Z,77.99
2023-10-25T07:40:06.873Z,77.95
2023-10-25T07:42:35.306Z,78.02
2023-10-25T07:45:05.462Z,77.88
2023-10-25T07:47:33.717Z,77.64
2023-10-25T07:50:02.407Z,77.49
2023-10-25T07:52:31.405Z,77.53
2023-10-25T07:55:00.088Z,77.33
2023-10-25T07:58:12.580Z,77.17
2023-10-25T08:00:17.592Z,77.13
2023-10-25T08:02:45.713Z,76.96
2023-10-25T08:05:13.912Z,76.31
2023-10-25T08:07:43.429Z,75.87
2023-10-25T08:10:11.974Z,75.57
2023-10-25T08:12:40.262Z,75.25
2023-10-25T08:15:09.395Z,74.44
2023-10-25T08:17:37.680Z,73.95
2023-10-25T08:20:06.888Z,74.00
2023-10-25T08:22:36.631Z,73.31
2023-10-25T08:25:10.457Z,72.77
2023-10-25T08:27:38.871Z,72.63
2023-10-25T08:30:08.344Z,72.31
2023-10-25T08:32:36.819Z,72.08
2023-10-25T08:35:06.046Z,71.36
2023-10-25T08:37:34.247Z,70.74
2023-10-25T08:40:02.455Z,70.36
2023-10-25T08:42:30.785Z,70.50
2023-10-25T08:45:00.231Z,70.54
2023-10-25T08:47:29.914Z,70.63
2023-10-25T08:49:58.312Z,70.76
2023-10-25T08:52:26.930Z,71.10
2023-10-25T08:54:55.054Z,70.94
2023-10-25T08:57:23.694Z,70.65
2023-10-25T08:59:53.121Z,70.60
2023-10-25T09:02:21.642Z,70.85
2023-10-25T09:05:07.886Z,70.86
2023-10-25T09:07:38.378Z,70.89
2023-10-25T09:10:14.567Z,70.56
2023-10-25T09:12:43.211Z,70.27
2023-10-25T09:15:11.539Z,70.30
2023-10-25T09:17:40.126Z,70.07
2023-10-25T09:20:09.664Z,69.45
2023-10-25T09:22:37.718Z,68.74
2023-10-25T09:25:06.952Z,68.49
2023-10-25T09:27:43.376Z,67.95
2023-10-25T09:30:26.543Z,67.26
2023-10-25T09:32:55.884Z,66.85
2023-10-25T09:35:24.728Z,66.43
2023-10-25T09:37:52.839Z,66.10
2023-10-25T09:40:22.094Z,65.07
2023-10-25T09:42:55.580Z,64.69
2023-10-25T09:45:30.167Z,64.53
2023-10-25T09:48:05.891Z,64.45
2023-10-25T09:50:43.151Z,65.27
2023-10-25T09:53:38.623Z,65.85
2023-10-25T09:56:10.081Z,66.50
2023-10-25T09:58:39.256Z,67.37
2023-10-25T10:01:10.044Z,67.97
2023-10-25T10:03:48.718Z,68.56
2023-10-25T10:06:22.971Z,69.01
2023-10-25T10:09:06.363Z,69.65
2023-10-25T10:11:41.658Z,70.22
2023-10-25T10:14:29.303Z,70.36
2023-10-25T10:17:06.267Z,70.74
2023-10-25T10:19:38.580Z,71.20
2023-10-25T10:22:08.958Z,71.23
2023-10-25T10:24:49.707Z,70.98
2023-10-25T10:27:19.616Z,71.22
2023-10-25T10:29:49.237Z,70.95
2023-10-25T10:32:18.867Z,71.10
2023-10-25T10:34:57.612Z,71.05
2023-10-25T10:37:29.655Z,70.93
2023-10-25T10:40:02.154Z,70.99
2023-10-25T10:42:41.052Z,71.20
2023-10-25T10:45:19.537Z,70.94
2023-10-25T10:47:56.956Z,70.82
2023-10-25T10:50:27.228Z,70.68
2023-10-25T10:52:55.569Z,70.71
2023-10-25T10:55:26.144Z,70.57
2023-10-25T11:00:29.039Z,70.76
2023-10-25T11:02:57.190Z,70.21
2023-10-25T11:05:25.787Z,70.07
2023-10-25T11:07:55.368Z,70.36
2023-10-25T11:10:23.714Z,70.68
2023-10-25T11:12:51.971Z,70.58
2023-10-25T11:15:25.775Z,70.84
2023-10-25T11:17:54.804Z,71.29
2023-10-25T11:20:23.075Z,71.54
2023-10-25T11:22:52.276Z,72.01
2023-10-25T11:25:25.865Z,72.45
2023-10-25T11:27:57.230Z,72.05
2023-10-25T11:30:26.620Z,71.88
2023-10-25T11:32:55.714Z,71.52
2023-10-25T11:35:26.123Z,71.23
2023-10-25T11:37:54.521Z,70.74
2023-10-25T11:40:37.427Z,70.64
2023-10-25T11:43:07.380Z,69.92
2023-10-25T11:45:39.056Z,69.38
2023-10-25T11:48:09.316Z,68.17
2023-10-25T11:50:38.331Z,67.23
2023-10-25T11:53:08.536Z,66.65
2023-10-25T11:55:37.217Z,65.55
2023-10-25T11:58:06.064Z,64.09
2023-10-25T12:00:34.279Z,63.16
2023-10-25T12:03:02.561Z,61.97
2023-10-25T12:05:31.314Z,61.30
2023-10-25T12:07:59.652Z,60.48
2023-10-25T12:10:28.900Z,59.69
2023-10-25T12:12:57.984Z,58.82
2023-10-25T12:15:26.155Z,58.46
2023-10-25T12:17:54.593Z,58.34
2023-10-25T12:20:28.156Z,58.42
2023-10-25T12:22:57.751Z,58.57
2023-10-25T12:25:27.899Z,58.79
2023-10-25T12:27:56.712Z,58.51
2023-10-25T12:30:25.084Z,58.90
2023-10-25T12:32:55.422Z,58.68
2023-10-25T12:35:23.810Z,58.49
2023-10-25T12:37:52.019Z,58.85
2023-10-25T12:40:20.179Z,59.16
2023-10-25T12:42:49.394Z,59.50
2023-10-25T12:45:18.176Z,59.69
2023-10-25T12:47:46.450Z,59.50
2023-10-25T12:50:14.864Z,59.61
2023-10-25T12:52:43.388Z,59.79
2023-10-25T12:55:14.812Z,60.34
2023-10-25T12:57:43.756Z,60.56
2023-10-25T13:00:13.185Z,60.52
2023-10-25T13:02:41.997Z,60.61
2023-10-25T13:05:10.389Z,60.55
2023-10-25T13:07:38.734Z,61.01
2023-10-25T13:10:07.851Z,60.77
2023-10-25T13:12:37.218Z,60.52
2023-10-25T13:15:07.230Z,60.77
2023-10-25T13:17:35.398Z,60.55
2023-10-25T13:20:04.248Z,60.42
2023-10-25T13:22:32.773Z,60.55
2023-10-25T13:25:01.447Z,61.22
2023-10-25T13:27:30.007Z,61.47
2023-10-25T13:29:58.454Z,61.71
2023-10-25T13:32:28.409Z,61.95
2023-10-25T13:34:56.950Z,62.04
2023-10-25T13:37:25.893Z,61.38
2023-10-25T13:39:54.668Z,61.87
2023-10-25T13:42:23.627Z,62.01
2023-10-25T13:44:51.944Z,61.95
2023-10-25T13:47:20.152Z,61.91
2023-10-25T13:49:48.894Z,62.25
2023-10-25T13:52:17.288Z,62.59
2023-10-25T13:54:46.364Z,62.74
2023-10-25T13:57:15.160Z,62.99
2023-10-25T13:59:45.100Z,63.17
2023-10-25T14:02:13.416Z,63.26
2023-10-25T14:04:41.465Z,63.20
2023-10-25T14:07:09.592Z,63.19
2023-10-25T14:09:38.764Z,63.36
2023-10-25T14:12:08.545Z,63.49
2023-10-25T14:14:36.907Z,63.57
2023-10-25T14:17:05.874Z,63.89
2023-10-25T14:19:33.998Z,64.25
2023-10-25T14:22:02.177Z,64.39
2023-10-25T14:24:33.723Z,64.30
2023-10-25T14:27:10.694Z,64.53
2023-10-25T14:29:39.080Z,64.96
2023-10-25T14:32:07.757Z,65.32
2023-10-25T14:34:35.930Z,65.38
2023-10-25T14:37:04.608Z,65.75
2023-10-25T14:39:32.727Z,65.99
2023-10-25T14:42:01.170Z,66.19
2023-10-25T14:44:31.741Z,66.79
2023-10-25T14:47:00.790Z,66.99
2023-10-25T14:49:29.308Z,67.17
2023-10-25T14:51:57.805Z,66.30
2023-10-25T14:54:27.337Z,66.30
2023-10-25T14:56:55.977Z,64.24
2023-10-25T14:59:24.481Z,64.19
2023-10-25T15:01:52.795Z,63.46
2023-10-25T15:04:21.207Z,63.66
2023-10-25T15:06:49.345Z,64.26
2023-10-25T15:09:17.494Z,64.90
2023-10-25T15:11:45.903Z,65.13
2023-10-25T15:14:15.370Z,65.42
2023-10-25T15:16:43.814Z,65.71
2023-10-25T15:19:11.946Z,65.79
2023-10-25T15:21:40.249Z,66.06
2023-10-25T15:24:09.376Z,66.09
2023-10-25T15:26:37.660Z,66.36
2023-10-25T15:29:06.069Z,66.59
2023-10-25T15:31:34.673Z,66.72
2023-10-25T15:34:04.180Z,66.71
2023-10-25T15:36:32.543Z,66.92
2023-10-25T15:39:09.140Z,67.34
2023-10-25T15:41:38.476Z,66.45
2023-10-25T15:44:07.413Z,66.11
2023-10-25T15:46:36.774Z,66.87
2023-10-25T15:49:05.375Z,67.43
2023-10-25T15:51:37.327Z,67.88
2023-10-25T15:54:06.776Z,68.00
2023-10-25T15:56:35.293Z,68.19
2023-10-25T15:59:05.081Z,68.49
2023-10-25T16:01:44.268Z,67.82
2023-10-25T16:04:20.755Z,67.43
2023-10-25T16:06:49.198Z,66.54
2023-10-25T16:09:17.345Z,64.75
2023-10-25T16:11:45.840Z,63.12
2023-10-25T16:14:14.505Z,60.71
2023-10-25T16:16:42.752Z,60.81
2023-10-25T16:19:11.054Z,61.39
2023-10-25T16:21:39.302Z,59.10
2023-10-25T16:24:08.860Z,58.69
2023-10-25T16:26:37.170Z,57.52
2023-10-25T16:29:07.564Z,56.30
2023-10-25T16:31:37.132Z,54.95
2023-10-25T16:34:05.569Z,53.67
2023-10-25T16:36:34.452Z,53.60
2023-10-25T16:39:05.862Z,53.05
2023-10-25T16:41:34.419Z,52.05
2023-10-25T16:44:02.738Z,51.94
2023-10-25T16:46:30.889Z,51.81
2023-10-25T16:48:59.296Z,51.51
2023-10-25T16:51:28.021Z,51.02
2023-10-25T16:53:56.913Z,49.87
2023-10-25T16:56:25.336Z,49.78
2023-10-25T16:58:55.669Z,49.41
2023-10-25T17:01:23.895Z,49.31
2023-10-25T17:03:52.710Z,49.25
2023-10-25T17:06:21.882Z,48.97
2023-10-25T17:08:50.662Z,48.74
2023-10-25T17:11:19.077Z,48.90
2023-10-25T17:13:47.162Z,48.98
2023-10-25T17:16:16.569Z,49.04
2023-10-25T17:18:46.581Z,49.24
2023-10-25T17:21:15.347Z,49.21
2023-10-25T17:23:47.406Z,49.07
2023-10-25T17:26:15.724Z,48.94
2023-10-25T17:28:44.340Z,49.16
2023-10-25T17:31:15.901Z,48.97
2023-10-25T17:33:46.387Z,49.05
2023-10-25T17:36:14.925Z,49.08
2023-10-25T17:38:43.388Z,49.24
2023-10-25T17:41:11.720Z,49.13
2023-10-25T17:43:40.195Z,49.15
2023-10-25T17:46:12.341Z,49.46
2023-10-25T17:48:41.150Z,49.48
2023-10-25T17:51:11.203Z,49.44
2023-10-25T17:53:39.571Z,49.36
2023-10-25T17:56:08.537Z,49.55
2023-10-25T17:58:36.866Z,49.77
2023-10-25T18:01:05.818Z,50.03
2023-10-25T18:03:34.049Z,50.37
2023-10-25T18:06:04.504Z,50.70
2023-10-25T18:08:32.904Z,50.72
2023-10-25T18:11:02.111Z,51.34
2023-10-25T18:13:30.626Z,51.73
2023-10-25T18:15:59.028Z,51.69
2023-10-25T18:18:29.225Z,51.48
2023-10-25T18:20:58.966Z,51.69
2023-10-25T18:23:27.417Z,51.58
2023-10-25T18:25:55.775Z,51.73
2023-10-25T18:28:24.046Z,51.75
2023-10-25T18:32:00.790Z,51.67
2023-10-25T18:33:48.112Z,51.79
2023-10-25T18:36:16.391Z,51.76
2023-10-25T18:38:47.095Z,51.69
2023-10-25T18:41:15.741Z,51.76
2023-10-25T18:43:48.761Z,51.82
2023-10-25T18:46:19.148Z,51.81
2023-10-25T18:48:48.310Z,51.94
2023-10-25T18:51:17.004Z,52.00
2023-10-25T18:53:46.205Z,52.20
2023-10-25T18:56:14.766Z,52.26
2023-10-25T18:58:44.346Z,52.37
2023-10-25T19:01:17.836Z,52.41
2023-10-25T19:03:50.817Z,52.51
2023-10-25T19:06:34.644Z,52.69
2023-10-25T19:09:05.390Z,52.86
2023-10-25T19:11:34.046Z,52.80
2023-10-25T19:14:02.587Z,53.00
2023-10-25T19:16:31.850Z,52.98
2023-10-25T19:19:02.531Z,52.94
2023-10-25T19:21:33.078Z,53.16
2023-10-25T19:24:04.248Z,53.30
2023-10-25T19:26:47.627Z,53.56
2023-10-25T19:29:19.417Z,53.80
2023-10-25T19:31:48.868Z,53.82
2023-10-25T19:34:17.266Z,53.81
2023-10-25T19:36:45.830Z,53.82
2023-10-25T19:39:14.493Z,54.11
2023-10-25T19:41:45.546Z,54.02
2023-10-25T19:44:14.134Z,53.93
2023-10-25T19:46:42.188Z,53.95
2023-10-25T19:49:10.767Z,53.88
2023-10-25T19:51:41.561Z,53.90
2023-10-25T19:54:12.276Z,53.81
2023-10-25T19:56:41.263Z,53.84
2023-10-25T19:59:09.683Z,53.91
2023-10-25T20:01:38.213Z,54.00
2023-10-25T20:04:06.670Z,53.86
2023-10-25T20:06:35.226Z,54.05
2023-10-25T20:09:04.611Z,54.32
2023-10-25T20:11:33.217Z,54.45
2023-10-25T20:14:01.346Z,54.53
2023-10-25T20:16:31.339Z,54.71
2023-10-25T20:18:59.905Z,54.75
2023-10-25T20:21:28.137Z,54.96
2023-10-25T20:24:02.475Z,55.25
2023-10-25T20:26:34.782Z,55.51
2023-10-25T20:29:05.386Z,55.81
2023-10-25T20:31:33.928Z,56.40
2023-10-25T20:34:02.537Z,56.29
2023-10-25T20:36:32.311Z,56.74
2023-10-25T20:39:00.933Z,56.99
2023-10-25T20:41:29.604Z,56.93
2023-10-25T20:43:58.035Z,57.14
2023-10-25T20:46:26.524Z,57.90
2023-10-25T20:48:55.000Z,57.65
2023-10-25T20:51:26.553Z,58.27
2023-10-25T20:53:55.537Z,58.31
2023-10-25T20:56:24.066Z,58.78
2023-10-25T20:58:52.905Z,59.03
2023-10-25T21:01:21.156Z,59.08
2023-10-25T21:03:49.608Z,59.10
2023-10-25T21:06:18.660Z,59.42
2023-10-25T21:08:47.241Z,59.57
2023-10-25T21:11:15.672Z,59.79
2023-10-25T21:13:43.848Z,60.09
2023-10-25T21:16:15.264Z,60.44
2023-10-25T21:18:43.509Z,60.68
2023-10-25T21:21:13.480Z,60.94
2023-10-25T21:23:42.216Z,61.01
2023-10-25T21:26:12.808Z,61.13
2023-10-25T21:28:41.996Z,61.79
2023-10-25T21:31:11.131Z,61.95
2023-10-25T21:33:40.122Z,61.82
2023-10-25T21:36:12.136Z,62.03
2023-10-25T21:38:40.575Z,61.99
2023-10-25T21:41:15.823Z,61.99
2023-10-25T21:43:44.722Z,62.56
2023-10-25T21:46:13.396Z,62.52
2023-10-25T21:48:42.186Z,62.35
2023-10-25T21:51:11.121Z,62.21
2023-10-25T21:53:39.715Z,62.27
2023-10-25T21:56:22.322Z,62.63
2023-10-25T21:59:49.336Z,62.78
2023-10-25T22:01:47.309Z,62.78
2023-10-25T22:04:22.054Z,62.94
2023-10-25T22:06:50.992Z,63.23
2023-10-25T22:09:21.142Z,63.25
2023-10-25T22:11:51.104Z,63.69
2023-10-25T22:14:21.060Z,63.63
2023-10-25T22:16:49.346Z,64.15
2023-10-25T22:19:17.973Z,64.38
2023-10-25T22:21:46.390Z,64.94
2023-10-25T22:24:17.087Z,64.70
2023-10-25T22:26:45.773Z,64.85
2023-10-25T22:29:17.594Z,65.06
2023-10-25T22:31:46.584Z,65.64
2023-10-25T22:34:19.781Z,66.95
2023-10-25T22:36:49.318Z,66.74
2023-10-25T22:39:19.057Z,66.66
2023-10-25T22:41:47.462Z,67.58
2023-10-25T22:44:16.140Z,66.95
2023-10-25T22:46:44.241Z,66.76
2023-10-25T22:49:13.435Z,66.62
2023-10-25T22:51:41.725Z,66.57
2023-10-25T22:54:10.125Z,66.62
2023-10-25T22:56:39.087Z,66.68
2023-10-25T22:59:07.230Z,66.85
2023-10-25T23:01:35.367Z,67.10
2023-10-25T23:04:03.774Z,66.87
2023-10-25T23:06:35.036Z,66.81
2023-10-25T23:09:03.960Z,66.90
2023-10-25T23:11:32.769Z,67.10
2023-10-25T23:14:00.808Z,67.03
2023-10-25T23:16:29.364Z,66.94
2023-10-25T23:19:01.568Z,67.04
2023-10-25T23:21:29.828Z,67.06
2023-10-25T23:23:58.272Z,67.12
2023-10-25T23:26:26.448Z,67.23
2023-10-25T23:28:54.563Z,67.16
2023-10-25T23:31:23.109Z,67.44
2023-10-25T23:33:51.281Z,67.61
2023-10-25T23:36:19.798Z,67.86
2023-10-25T23:38:47.983Z,68.22
2023-10-25T23:41:16.552Z,68.32
2023-10-25T23:43:45.729Z,68.27
2023-10-25T23:46:13.868Z,68.38
2023-10-25T23:48:42.089Z,68.85
2023-10-25T23:51:10.542Z,69.13
2023-10-25T23:53:39.159Z,69.29
2023-10-25T23:56:36.762Z,69.22
2023-10-25T23:58:55.954Z,69.78
